This is the latest recevied weather packets stored in our database for station/object LRTM. If no packets are shown the sender has not sent any weather packets the latest 10 day(s).
| Time | Temp. | Humidity | Pressure | Rain* | Wind** | Luminosity | Snow |
|---|---|---|---|---|---|---|---|
| 1777969107 | 18.89° C | 43% | 1016 hPa | - | - | - | - |
| 1777968206 | 18.89° C | 43% | 1016 hPa | - | - | - | - |
| 1777967324 | 17.78° C | 46% | 1017 hPa | - | - | - | - |
| 1777966406 | 17.78° C | 46% | 1017 hPa | - | - | - | - |
| 1777965506 | 16.11° C | 59% | 1017 hPa | - | - | - | - |
| 1777964606 | 16.11° C | 59% | 1017 hPa | - | - | - | - |
| 1777963706 | 13.89° C | 63% | 1017 hPa | - | - | - | - |
| 1777962807 | 13.89° C | 63% | 1017 hPa | - | - | - | - |
| 1777961906 | 12.22° C | 67% | 1017 hPa | - | - | - | - |
| 1777961007 | 12.22° C | 67% | 1017 hPa | - | - | - | - |
| 1777960106 | 10° C | 76% | 1017 hPa | - | - | - | - |
| 1777959207 | 10° C | 76% | 1017 hPa | - | - | - | - |
| 1777958306 | 8.89° C | 76% | 1017 hPa | - | - | - | - |
| 1777957406 | 8.89° C | 76% | 1017 hPa | - | - | - | - |
| 1777956506 | 7.22° C | 81% | 1017 hPa | - | - | - | - |
| 1777955606 | 7.22° C | 81% | 1017 hPa | - | - | - | - |
| 1777954706 | 5° C | 87% | 1017 hPa | - | - | - | - |
| 1777953806 | 5° C | 87% | 1017 hPa | - | - | - | - |
| 1777952906 | 5° C | 81% | 1017 hPa | - | - | - | - |
| 1777952006 | 5° C | 81% | 1017 hPa | - | - | - | - |
| 1777951106 | 5° C | 87% | 1017 hPa | - | - | - | - |
| 1777950206 | 5° C | 87% | 1017 hPa | - | - | - | - |
| 1777949306 | 5° C | 81% | 1017 hPa | - | - | - | - |
| 1777948406 | 5° C | 81% | 1017 hPa | - | - | - | - |
| 1777947506 | 3.89° C | 87% | 1017 hPa | - | - | - | - |
* Rain since midnight (hover to see other rain measurements)
** Current wind speed in m/s (hover to see current wind gust speed)